createdAt,value
2019-05-10T00:00:10.748Z,10.73
2019-05-10T00:02:35.165Z,10.70
2019-05-10T00:04:59.239Z,10.63
2019-05-10T00:07:23.743Z,10.56
2019-05-10T00:09:29.310Z,10.49
2019-05-10T00:11:44.343Z,10.47
2019-05-10T00:14:02.884Z,10.41
2019-05-10T00:16:09.659Z,10.34
2019-05-10T00:18:16.067Z,10.30
2019-05-10T00:20:22.485Z,10.28
2019-05-10T00:22:28.874Z,10.26
2019-05-10T00:24:35.359Z,10.23
2019-05-10T00:26:41.911Z,10.20
2019-05-10T00:28:48.472Z,10.18
2019-05-10T00:30:55.077Z,10.15
2019-05-10T00:33:01.558Z,10.13
2019-05-10T00:35:08.330Z,10.10
2019-05-10T00:37:14.780Z,10.10
2019-05-10T00:39:21.213Z,10.09
2019-05-10T00:41:27.668Z,10.08
2019-05-10T00:43:34.198Z,10.07
2019-05-10T00:45:40.630Z,10.08
2019-05-10T00:47:47.096Z,10.07
2019-05-10T00:49:53.553Z,10.05
2019-05-10T00:52:00.187Z,10.05
2019-05-10T00:54:06.787Z,10.03
2019-05-10T00:56:13.251Z,10.01
2019-05-10T00:58:19.737Z,10.01
2019-05-10T01:00:26.119Z,9.99
2019-05-10T01:02:32.503Z,9.98
2019-05-10T01:04:39.026Z,10.00
2019-05-10T01:06:45.564Z,10.00
2019-05-10T01:08:51.956Z,10.02
2019-05-10T01:10:58.373Z,10.01
2019-05-10T01:13:04.825Z,10.05
2019-05-10T01:15:11.929Z,10.08
2019-05-10T01:17:18.427Z,10.09
2019-05-10T01:19:24.835Z,10.11
2019-05-10T01:21:32.371Z,10.09
2019-05-10T01:23:38.793Z,10.09
2019-05-10T01:25:45.230Z,10.10
2019-05-10T01:27:51.621Z,10.13
2019-05-10T01:29:58.076Z,10.12
2019-05-10T01:32:04.615Z,10.14
2019-05-10T01:34:11.008Z,10.15
2019-05-10T01:36:17.652Z,10.18
2019-05-10T01:38:24.109Z,10.20
2019-05-10T01:40:30.595Z,10.20
2019-05-10T01:42:37.003Z,10.21
2019-05-10T01:44:43.390Z,10.22
2019-05-10T01:46:49.926Z,10.18
2019-05-10T01:48:56.426Z,10.22
2019-05-10T01:51:02.970Z,10.24
2019-05-10T01:53:09.441Z,10.27
2019-05-10T01:55:16.087Z,10.28
2019-05-10T01:57:22.493Z,10.29
2019-05-10T01:59:28.894Z,10.28
2019-05-10T02:01:35.390Z,10.28
2019-05-10T02:03:41.877Z,10.28
2019-05-10T02:05:49.160Z,10.32
2019-05-10T02:07:55.581Z,10.34
2019-05-10T02:10:01.975Z,10.35
2019-05-10T02:12:08.432Z,10.36
2019-05-10T02:14:15.079Z,10.37
2019-05-10T02:16:21.506Z,10.37
2019-05-10T02:18:28.061Z,10.38
2019-05-10T02:20:34.478Z,10.36
2019-05-10T02:22:40.876Z,10.38
2019-05-10T02:24:47.479Z,10.38
2019-05-10T02:26:53.898Z,10.39
2019-05-10T02:29:00.400Z,10.36
2019-05-10T02:31:06.801Z,10.35
2019-05-10T02:33:13.261Z,10.38
2019-05-10T02:35:20.012Z,10.37
2019-05-10T02:37:26.549Z,10.37
2019-05-10T02:39:33.063Z,10.37
2019-05-10T02:41:39.589Z,10.38
2019-05-10T02:43:46.152Z,10.37
2019-05-10T02:45:52.754Z,10.37
2019-05-10T02:47:59.310Z,10.37
2019-05-10T02:50:07.779Z,10.35
2019-05-10T02:52:14.255Z,10.34
2019-05-10T02:54:20.931Z,10.36
2019-05-10T02:56:31.363Z,10.35
2019-05-10T02:58:39.159Z,10.35
2019-05-10T03:00:49.064Z,10.37
2019-05-10T03:02:58.178Z,10.38
2019-05-10T03:05:05.933Z,10.40
2019-05-10T03:07:12.253Z,10.41
2019-05-10T03:09:20.419Z,10.41
2019-05-10T03:11:31.591Z,10.39
2019-05-10T03:13:40.079Z,10.39
2019-05-10T03:15:50.711Z,10.41
2019-05-10T03:17:58.247Z,10.40
2019-05-10T03:20:04.988Z,10.42
2019-05-10T03:22:11.537Z,10.42
2019-05-10T03:24:18.482Z,10.39
2019-05-10T03:26:24.880Z,10.40
2019-05-10T03:28:31.830Z,10.39
2019-05-10T03:30:38.464Z,10.42
2019-05-10T03:32:44.874Z,10.44
2019-05-10T03:34:51.403Z,10.47
2019-05-10T03:36:58.867Z,10.51
2019-05-10T03:39:06.882Z,10.52
2019-05-10T03:41:13.406Z,10.54
2019-05-10T03:43:19.897Z,10.55
2019-05-10T03:45:26.370Z,10.57
2019-05-10T03:47:32.752Z,10.60
2019-05-10T03:49:39.186Z,10.61
2019-05-10T03:51:45.577Z,10.62
2019-05-10T03:53:52.187Z,10.64
2019-05-10T03:55:58.612Z,10.61
2019-05-10T03:58:05.064Z,10.58
2019-05-10T04:00:13.888Z,10.62
2019-05-10T04:02:20.613Z,10.63
2019-05-10T04:04:27.360Z,10.64
2019-05-10T04:06:34.130Z,10.64
2019-05-10T04:08:41.198Z,10.65
2019-05-10T04:10:47.803Z,10.63
2019-05-10T04:12:54.290Z,10.66
2019-05-10T04:15:00.980Z,10.69
2019-05-10T04:17:08.951Z,10.70
2019-05-10T04:19:15.382Z,10.71
2019-05-10T04:21:21.835Z,10.75
2019-05-10T04:23:30.001Z,10.74
2019-05-10T04:25:36.407Z,10.79
2019-05-10T04:27:42.833Z,10.83
2019-05-10T04:29:49.358Z,10.88
2019-05-10T04:31:55.767Z,10.86
2019-05-10T04:34:02.196Z,10.88
2019-05-10T04:36:12.249Z,10.87
2019-05-10T04:38:16.861Z,10.91
2019-05-10T04:40:23.285Z,10.96
2019-05-10T04:42:32.785Z,11.01
2019-05-10T04:44:39.437Z,11.05
2019-05-10T04:46:46.016Z,11.16
2019-05-10T04:48:53.597Z,11.24
2019-05-10T04:51:00.798Z,11.32
2019-05-10T04:53:09.509Z,11.38
2019-05-10T04:55:18.773Z,11.36
2019-05-10T04:57:25.325Z,11.39
2019-05-10T04:59:31.741Z,11.44
2019-05-10T05:01:38.138Z,11.48
2019-05-10T05:03:44.546Z,11.54
2019-05-10T05:05:51.116Z,11.60
2019-05-10T05:07:57.659Z,11.62
2019-05-10T05:10:06.185Z,11.70
2019-05-10T05:12:12.611Z,11.82
2019-05-10T05:14:19.082Z,11.89
2019-05-10T05:16:25.460Z,11.96
2019-05-10T05:18:31.883Z,11.98
2019-05-10T05:20:38.277Z,12.11
2019-05-10T05:22:44.747Z,12.17
2019-05-10T05:24:55.124Z,12.26
2019-05-10T05:26:59.492Z,12.36
2019-05-10T05:29:06.061Z,12.42
2019-05-10T05:31:12.745Z,12.40
2019-05-10T05:33:19.135Z,12.45
2019-05-10T05:35:25.602Z,12.53
2019-05-10T05:37:32.102Z,12.64
2019-05-10T05:39:38.494Z,12.79
2019-05-10T05:41:49.107Z,12.85
2019-05-10T05:43:53.214Z,12.95
2019-05-10T05:45:59.613Z,13.00
2019-05-10T05:48:07.215Z,13.26
2019-05-10T05:50:14.059Z,13.68
2019-05-10T05:52:20.475Z,13.91
2019-05-10T05:54:26.917Z,14.28
2019-05-10T05:56:33.484Z,14.57
2019-05-10T05:58:44.775Z,14.79
2019-05-10T06:00:48.299Z,15.08
2019-05-10T06:02:54.806Z,15.16
2019-05-10T06:05:01.272Z,15.16
2019-05-10T06:07:07.657Z,15.14
2019-05-10T06:09:14.079Z,15.21
2019-05-10T06:11:20.471Z,15.21
2019-05-10T06:13:30.353Z,15.20
2019-05-10T06:15:35.258Z,15.37
2019-05-10T06:17:41.680Z,15.47
2019-05-10T06:19:48.048Z,15.45
2019-05-10T06:21:58.151Z,15.20
2019-05-10T06:24:07.536Z,14.90
2019-05-10T06:26:21.342Z,14.73
2019-05-10T06:28:27.033Z,14.83
2019-05-10T06:30:30.625Z,14.89
2019-05-10T06:32:37.223Z,14.84
2019-05-10T06:34:43.652Z,14.84
2019-05-10T06:36:50.126Z,14.85
2019-05-10T06:38:56.585Z,14.83
2019-05-10T06:41:03.004Z,14.86
2019-05-10T06:43:13.294Z,14.77
2019-05-10T06:45:18.955Z,14.78
2019-05-10T06:47:25.374Z,14.53
2019-05-10T06:49:31.808Z,14.50
2019-05-10T06:51:42.746Z,14.57
2019-05-10T06:53:52.055Z,14.50
2019-05-10T06:55:54.674Z,14.69
2019-05-10T06:58:01.066Z,14.97
2019-05-10T07:00:09.172Z,15.25
2019-05-10T07:02:20.117Z,15.30
2019-05-10T07:04:23.618Z,15.31
2019-05-10T07:06:30.258Z,15.44
2019-05-10T07:08:44.303Z,15.69
2019-05-10T07:10:44.750Z,15.92
2019-05-10T07:12:51.379Z,16.22
2019-05-10T07:15:03.333Z,16.48
2019-05-10T07:17:07.607Z,16.37
2019-05-10T07:19:14.236Z,16.29
2019-05-10T07:21:20.667Z,16.39
2019-05-10T07:23:30.115Z,16.55
2019-05-10T07:25:37.925Z,16.48
2019-05-10T07:27:44.246Z,16.57
2019-05-10T07:29:51.000Z,16.76
2019-05-10T07:31:57.536Z,16.90
2019-05-10T07:34:04.066Z,16.82
2019-05-10T07:36:14.803Z,16.97
2019-05-10T07:38:23.863Z,17.19
2019-05-10T07:40:26.810Z,17.16
2019-05-10T07:42:33.282Z,17.16
2019-05-10T07:44:41.546Z,17.34
2019-05-10T07:46:54.308Z,17.47
2019-05-10T07:48:55.909Z,17.27
2019-05-10T07:51:02.348Z,17.24
2019-05-10T07:53:08.738Z,17.07
2019-05-10T07:55:18.639Z,16.86
2019-05-10T07:57:24.665Z,17.06
2019-05-10T07:59:49.406Z,16.96
2019-05-10T08:01:40.685Z,16.96
2019-05-10T08:03:52.199Z,16.72
2019-05-10T08:05:58.926Z,16.59
2019-05-10T08:08:03.495Z,16.54
2019-05-10T08:10:11.116Z,16.28
2019-05-10T08:12:19.446Z,16.02
2019-05-10T08:14:25.685Z,15.93
2019-05-10T08:16:32.185Z,16.02
2019-05-10T08:18:41.992Z,16.22
2019-05-10T08:20:54.066Z,16.08
2019-05-10T08:22:55.255Z,15.87
2019-05-10T08:25:02.329Z,15.76
2019-05-10T08:27:14.068Z,15.67
2019-05-10T08:29:18.224Z,15.59
2019-05-10T08:31:26.379Z,15.42
2019-05-10T08:33:34.066Z,15.40
2019-05-10T08:35:45.923Z,15.26
2019-05-10T08:37:49.220Z,15.16
2019-05-10T08:39:56.241Z,15.10
2019-05-10T08:42:13.637Z,15.08
2019-05-10T08:44:19.133Z,14.95
2019-05-10T08:46:19.432Z,14.90
2019-05-10T08:48:27.795Z,14.89
2019-05-10T08:50:48.833Z,14.90
2019-05-10T08:52:42.639Z,14.93
2019-05-10T08:54:50.068Z,15.06
2019-05-10T08:57:01.055Z,15.12
2019-05-10T08:59:09.302Z,15.21
2019-05-10T09:01:25.919Z,15.24
2019-05-10T09:03:22.784Z,15.21
2019-05-10T09:05:31.458Z,15.17
2019-05-10T09:07:39.125Z,15.09
2019-05-10T09:09:49.676Z,15.04
2019-05-10T09:11:57.670Z,14.83
2019-05-10T09:14:03.204Z,14.59
2019-05-10T09:16:09.938Z,14.49
2019-05-10T09:18:16.319Z,14.38
2019-05-10T09:20:26.504Z,14.18
2019-05-10T09:22:33.942Z,14.09
2019-05-10T09:24:41.000Z,14.05
2019-05-10T09:26:54.901Z,14.06
2019-05-10T09:28:57.686Z,14.01
2019-05-10T09:31:17.063Z,14.12
2019-05-10T09:33:14.343Z,14.19
2019-05-10T09:35:22.177Z,14.23
2019-05-10T09:37:28.599Z,14.28
2019-05-10T09:39:35.092Z,14.39
2019-05-10T09:41:42.195Z,14.37
2019-05-10T09:43:50.727Z,14.31
2019-05-10T09:45:58.019Z,14.24
2019-05-10T09:48:04.501Z,14.17
2019-05-10T09:50:12.629Z,14.14
2019-05-10T09:52:19.378Z,14.15
2019-05-10T09:54:29.390Z,14.11
2019-05-10T09:56:42.065Z,14.08
2019-05-10T09:58:42.107Z,14.00
2019-05-10T10:00:48.692Z,14.05
2019-05-10T10:02:56.938Z,14.04
2019-05-10T10:05:07.526Z,14.16
2019-05-10T10:07:13.855Z,14.30
2019-05-10T10:09:24.726Z,14.51
2019-05-10T10:11:28.407Z,14.73
2019-05-10T10:13:43.071Z,14.80
2019-05-10T10:15:42.948Z,14.89
2019-05-10T10:17:49.376Z,15.17
2019-05-10T10:19:57.864Z,15.45
2019-05-10T10:22:05.546Z,15.72
2019-05-10T10:24:17.259Z,15.89
2019-05-10T10:26:22.371Z,16.09
2019-05-10T10:28:28.705Z,16.16
2019-05-10T10:30:37.286Z,16.54
2019-05-10T10:32:44.627Z,16.84
2019-05-10T10:34:54.747Z,17.31
2019-05-10T10:37:00.504Z,17.43
2019-05-10T10:39:08.579Z,17.43
2019-05-10T10:41:17.068Z,17.41
2019-05-10T10:43:23.212Z,17.62
2019-05-10T10:45:29.609Z,17.50
2019-05-10T10:47:38.044Z,17.21
2019-05-10T10:49:44.324Z,17.21
2019-05-10T10:51:50.718Z,17.18
2019-05-10T10:53:58.091Z,16.88
2019-05-10T10:56:07.469Z,16.52
2019-05-10T10:58:13.028Z,16.11
2019-05-10T11:00:32.896Z,15.71
2019-05-10T11:02:41.548Z,15.31
2019-05-10T11:04:48.992Z,14.96
2019-05-10T11:07:09.366Z,14.66
2019-05-10T11:09:05.842Z,14.42
2019-05-10T11:11:12.244Z,14.18
2019-05-10T11:13:29.018Z,14.09
2019-05-10T11:15:28.995Z,14.03
2019-05-10T11:17:35.050Z,14.04
2019-05-10T11:19:41.828Z,14.03
2019-05-10T11:21:48.336Z,14.07
2019-05-10T11:23:54.750Z,14.12
2019-05-10T11:26:01.430Z,14.15
2019-05-10T11:28:11.850Z,14.24
2019-05-10T11:30:18.594Z,14.24
2019-05-10T11:32:24.977Z,14.20
2019-05-10T11:34:37.593Z,14.28
2019-05-10T11:36:40.526Z,14.48
2019-05-10T11:38:56.588Z,14.66
2019-05-10T11:40:55.741Z,14.74
2019-05-10T11:43:02.162Z,14.99
2019-05-10T11:45:11.091Z,15.08
2019-05-10T11:47:24.050Z,14.93
2019-05-10T11:49:25.505Z,15.19
2019-05-10T11:51:31.935Z,15.36
2019-05-10T11:53:38.353Z,15.54
2019-05-10T11:55:44.746Z,15.66
2019-05-10T11:58:01.946Z,15.77
2019-05-10T11:59:59.386Z,15.99
2019-05-10T12:02:10.384Z,16.27
2019-05-10T12:04:28.785Z,16.43
2019-05-10T12:06:23.085Z,16.56
2019-05-10T12:08:29.468Z,16.87
2019-05-10T12:10:41.185Z,16.95
2019-05-10T12:12:59.870Z,17.00
2019-05-10T12:14:53.975Z,17.13
2019-05-10T12:17:05.732Z,17.20
2019-05-10T12:19:17.105Z,17.52
2019-05-10T12:21:16.357Z,17.84
2019-05-10T12:23:30.233Z,18.03
2019-05-10T12:25:47.072Z,18.01
2019-05-10T12:27:45.268Z,17.96
2019-05-10T12:29:55.449Z,17.65
2019-05-10T12:31:57.059Z,17.43
2019-05-10T12:34:09.092Z,17.24
2019-05-10T12:36:22.365Z,17.12
2019-05-10T12:38:23.523Z,16.99
2019-05-10T12:40:28.421Z,16.70
2019-05-10T12:42:34.821Z,16.40
2019-05-10T12:44:43.957Z,16.32
2019-05-10T12:46:53.755Z,16.13
2019-05-10T12:48:57.495Z,15.95
2019-05-10T12:51:08.192Z,15.63
2019-05-10T12:53:17.383Z,15.45
2019-05-10T12:55:21.322Z,15.15
2019-05-10T12:57:27.740Z,14.97
2019-05-10T12:59:34.814Z,14.94
2019-05-10T13:01:42.364Z,14.89
2019-05-10T13:03:48.776Z,14.81
2019-05-10T13:05:55.168Z,14.78
2019-05-10T13:08:01.568Z,14.76
2019-05-10T13:10:10.681Z,14.84
2019-05-10T13:12:17.101Z,15.01
2019-05-10T13:14:23.501Z,15.23
2019-05-10T13:16:29.930Z,15.49
2019-05-10T13:18:50.663Z,15.67
2019-05-10T13:20:44.394Z,15.76
2019-05-10T13:22:50.893Z,15.91
2019-05-10T13:24:57.271Z,15.93
2019-05-10T13:27:03.761Z,16.01
2019-05-10T13:29:10.586Z,15.96
2019-05-10T13:45:17.319Z,15.28
2019-05-10T13:47:23.777Z,15.17
2019-05-10T13:49:30.270Z,15.13
2019-05-10T13:51:36.681Z,15.01
2019-05-10T13:53:43.215Z,14.93
2019-05-10T13:55:50.820Z,14.83
2019-05-10T13:57:57.397Z,14.79
2019-05-10T14:00:08.069Z,14.74
2019-05-10T14:02:14.634Z,14.67
2019-05-10T14:04:23.136Z,14.57
2019-05-10T14:06:29.301Z,14.46
2019-05-10T14:08:37.003Z,14.36
2019-05-10T14:10:43.539Z,14.31
2019-05-10T14:12:50.250Z,14.30
2019-05-10T14:15:02.364Z,14.26
2019-05-10T14:17:04.854Z,14.22
2019-05-10T14:19:15.953Z,14.18
2019-05-10T14:21:19.811Z,14.15
2019-05-10T14:23:29.156Z,14.10
2019-05-10T14:25:38.973Z,14.12
2019-05-10T14:27:45.608Z,14.11
2019-05-10T14:29:54.269Z,14.08
2019-05-10T14:32:00.733Z,14.07
2019-05-10T14:34:15.742Z,14.03
2019-05-10T14:36:15.527Z,14.04
2019-05-10T14:38:22.928Z,13.99
2019-05-10T14:40:30.795Z,13.94
2019-05-10T14:42:37.521Z,13.88
2019-05-10T14:44:44.118Z,13.90
2019-05-10T14:46:50.642Z,13.87
2019-05-10T14:48:57.089Z,13.91
2019-05-10T14:51:11.008Z,13.94
2019-05-10T14:53:11.749Z,14.02
2019-05-10T14:55:18.163Z,14.19
2019-05-10T14:57:24.598Z,14.37
2019-05-10T14:59:31.075Z,14.54
2019-05-10T15:01:42.924Z,14.76
2019-05-10T15:03:47.366Z,14.85
2019-05-10T15:05:56.499Z,14.85
2019-05-10T15:08:02.341Z,15.08
2019-05-10T15:10:09.277Z,15.26
2019-05-10T15:12:21.928Z,15.41
2019-05-10T15:14:23.927Z,15.49
2019-05-10T15:16:30.986Z,15.56
2019-05-10T15:18:37.525Z,15.61
2019-05-10T15:20:44.002Z,15.49
2019-05-10T15:22:50.493Z,15.60
2019-05-10T15:24:57.034Z,15.78
2019-05-10T15:27:03.420Z,15.85
2019-05-10T15:29:14.858Z,15.95
2019-05-10T15:31:18.187Z,16.07
2019-05-10T15:33:24.718Z,16.08
2019-05-10T15:35:31.140Z,16.05
2019-05-10T15:37:40.854Z,15.76
2019-05-10T15:39:45.956Z,15.66
2019-05-10T15:41:53.637Z,15.72
2019-05-10T15:44:00.662Z,15.65
2019-05-10T15:46:07.292Z,15.58
2019-05-10T15:48:13.754Z,15.63
2019-05-10T15:50:20.674Z,15.70
2019-05-10T15:52:27.170Z,15.76
2019-05-10T15:54:38.279Z,15.91
2019-05-10T15:56:44.004Z,15.91
2019-05-10T15:58:49.974Z,15.83
2019-05-10T16:00:56.354Z,15.79
2019-05-10T16:03:02.946Z,15.68
2019-05-10T16:05:25.630Z,15.63
2019-05-10T16:07:18.005Z,15.58
2019-05-10T16:09:24.442Z,15.54
2019-05-10T16:11:30.843Z,15.44
2019-05-10T16:13:37.276Z,15.34
2019-05-10T16:15:43.710Z,15.22
2019-05-10T16:17:57.748Z,15.11
2019-05-10T16:20:00.200Z,15.08
2019-05-10T16:22:06.469Z,15.12
2019-05-10T16:24:13.562Z,15.12
2019-05-10T16:26:22.810Z,15.10
2019-05-10T16:28:28.336Z,15.12
2019-05-10T16:30:36.619Z,15.10
2019-05-10T16:32:43.095Z,15.05
2019-05-10T16:34:49.662Z,15.00
2019-05-10T16:36:56.264Z,14.95
2019-05-10T16:39:02.723Z,14.90
2019-05-10T16:41:09.651Z,14.81
2019-05-10T16:43:22.211Z,14.81
2019-05-10T16:45:24.458Z,14.76
2019-05-10T16:47:32.254Z,14.76
2019-05-10T16:49:38.749Z,14.70
2019-05-10T16:51:47.658Z,14.67
2019-05-10T16:53:53.381Z,14.63
2019-05-10T16:56:01.542Z,14.54
2019-05-10T16:58:09.584Z,14.48
2019-05-10T17:00:19.007Z,14.41
2019-05-10T17:02:25.515Z,14.37
2019-05-10T17:04:37.302Z,14.30
2019-05-10T17:06:40.670Z,14.24
2019-05-10T17:08:48.442Z,14.20
2019-05-10T17:10:54.838Z,14.18
2019-05-10T17:13:05.079Z,14.13
2019-05-10T17:15:09.810Z,14.05
2019-05-10T17:17:16.204Z,13.99
2019-05-10T17:19:27.782Z,13.95
2019-05-10T17:21:30.837Z,13.91
2019-05-10T17:23:41.623Z,13.84
2019-05-10T17:25:47.432Z,13.81
2019-05-10T17:27:57.407Z,13.78
2019-05-10T17:30:02.188Z,13.76
2019-05-10T17:32:08.637Z,13.74
2019-05-10T17:34:25.753Z,13.68
2019-05-10T17:36:23.303Z,13.63
2019-05-10T17:38:31.714Z,13.58
2019-05-10T17:40:42.268Z,13.53
2019-05-10T17:42:46.210Z,13.47
2019-05-10T17:44:55.270Z,13.41
2019-05-10T17:47:02.073Z,13.35
2019-05-10T17:49:08.736Z,13.27
2019-05-10T17:51:15.244Z,13.17
2019-05-10T17:53:21.713Z,13.10
2019-05-10T17:55:28.135Z,12.97
2019-05-10T17:57:34.524Z,12.87
2019-05-10T17:59:41.075Z,12.79
2019-05-10T18:01:47.595Z,12.65
2019-05-10T18:03:54.097Z,12.55
2019-05-10T18:06:00.697Z,12.45
2019-05-10T18:08:07.310Z,12.37
2019-05-10T18:10:14.198Z,12.29
2019-05-10T18:12:26.126Z,12.22
2019-05-10T18:14:29.608Z,12.15
2019-05-10T18:16:36.255Z,12.05
2019-05-10T18:18:46.674Z,11.94
2019-05-10T18:20:50.893Z,11.83
2019-05-10T18:22:57.358Z,11.76
2019-05-10T18:25:13.248Z,11.71
2019-05-10T18:27:15.987Z,11.69
2019-05-10T18:29:22.389Z,11.67
2019-05-10T18:31:28.873Z,11.63
2019-05-10T18:33:35.344Z,11.58
2019-05-10T18:35:41.940Z,11.50
2019-05-10T18:37:53.534Z,11.42
2019-05-10T18:39:57.934Z,11.35
2019-05-10T18:42:04.541Z,11.30
2019-05-10T18:44:14.208Z,11.25
2019-05-10T18:46:19.069Z,11.20
2019-05-10T18:48:25.550Z,11.13
2019-05-10T18:50:31.955Z,11.12
2019-05-10T18:52:38.601Z,11.06
2019-05-10T18:54:45.042Z,11.02
2019-05-10T18:56:51.529Z,10.96
2019-05-10T18:59:06.830Z,10.91
2019-05-10T19:01:06.219Z,10.86
2019-05-10T19:03:12.920Z,10.82
2019-05-10T19:05:19.627Z,10.78
2019-05-10T19:07:26.195Z,10.75
2019-05-10T19:09:32.653Z,10.69
2019-05-10T19:11:40.741Z,10.64
2019-05-10T19:13:53.670Z,10.58
2019-05-10T19:15:58.518Z,10.54
2019-05-10T19:18:04.018Z,10.50
2019-05-10T19:20:16.357Z,10.43
2019-05-10T19:22:18.918Z,10.40
2019-05-10T19:24:30.601Z,10.38
2019-05-10T19:26:33.722Z,10.33
2019-05-10T19:28:40.215Z,10.31
2019-05-10T19:30:46.688Z,10.26
2019-05-10T19:32:56.456Z,10.22
2019-05-10T19:35:01.431Z,10.16
2019-05-10T19:37:08.091Z,10.12
2019-05-10T19:39:14.621Z,10.08
2019-05-10T19:41:25.572Z,10.05
2019-05-10T19:43:29.354Z,10.00
2019-05-10T19:45:35.964Z,9.95
2019-05-10T19:47:42.344Z,9.92
2019-05-10T19:49:51.646Z,9.93
2019-05-10T19:51:56.974Z,9.96
2019-05-10T19:54:03.646Z,9.92
2019-05-10T19:56:10.131Z,9.89
2019-05-10T19:58:16.646Z,9.84
2019-05-10T20:00:23.376Z,9.82
2019-05-10T20:02:29.895Z,9.80
2019-05-10T20:04:36.347Z,9.79
2019-05-10T20:06:43.150Z,9.77
2019-05-10T20:08:49.546Z,9.74
2019-05-10T20:10:56.136Z,9.78
2019-05-10T20:13:02.616Z,9.82
2019-05-10T20:15:13.084Z,9.83
2019-05-10T20:17:19.749Z,9.86
2019-05-10T20:19:26.296Z,9.88
2019-05-10T20:21:32.765Z,9.86
2019-05-10T20:23:39.150Z,9.81
2019-05-10T20:25:45.616Z,9.77
2019-05-10T20:27:52.160Z,9.73
2019-05-10T20:29:58.669Z,9.69
2019-05-10T20:32:05.263Z,9.66
2019-05-10T20:34:11.798Z,9.61
2019-05-10T20:36:18.311Z,9.60
2019-05-10T20:38:24.714Z,9.57
2019-05-10T20:40:31.325Z,9.56
2019-05-10T20:42:37.789Z,9.52
2019-05-10T20:44:44.304Z,9.49
2019-05-10T20:46:51.147Z,9.47
2019-05-10T20:48:57.540Z,9.44
2019-05-10T20:51:03.996Z,9.42
2019-05-10T20:53:10.379Z,9.40
2019-05-10T20:55:17.245Z,9.37
2019-05-10T20:57:23.855Z,9.34
2019-05-10T20:59:30.379Z,9.33
2019-05-10T21:01:36.911Z,9.31
2019-05-10T21:03:43.412Z,9.28
2019-05-10T21:05:49.871Z,9.22
2019-05-10T21:07:56.276Z,9.16
2019-05-10T21:10:02.887Z,9.13
2019-05-10T21:12:09.582Z,9.15
2019-05-10T21:14:16.105Z,9.23
2019-05-10T21:16:22.710Z,9.21
2019-05-10T21:18:29.127Z,9.19
2019-05-10T21:20:35.617Z,9.13
2019-05-10T21:22:42.081Z,9.06
2019-05-10T21:24:48.718Z,9.00
2019-05-10T21:26:55.240Z,8.95
2019-05-10T21:29:01.630Z,8.90
2019-05-10T21:31:08.138Z,8.85
2019-05-10T21:33:14.600Z,8.80
2019-05-10T21:35:21.061Z,8.76
2019-05-10T21:37:28.481Z,8.71
2019-05-10T21:39:35.213Z,8.69
2019-05-10T21:41:41.663Z,8.67
2019-05-10T21:43:48.218Z,8.68
2019-05-10T21:45:54.670Z,8.69
2019-05-10T21:48:01.089Z,8.70
2019-05-10T21:50:08.075Z,8.71
2019-05-10T21:52:14.614Z,8.69
2019-05-10T21:54:21.048Z,8.71
2019-05-10T21:56:27.576Z,8.73
2019-05-10T21:58:33.963Z,8.76
2019-05-10T22:00:50.017Z,8.82
2019-05-10T22:02:58.079Z,8.84
2019-05-10T22:05:05.990Z,8.81
2019-05-10T22:07:12.769Z,8.79
2019-05-10T22:09:19.196Z,8.76
2019-05-10T22:11:26.201Z,8.72
2019-05-10T22:13:32.624Z,8.69
2019-05-10T22:15:39.227Z,8.67
2019-05-10T22:17:45.681Z,8.68
2019-05-10T22:19:52.289Z,8.73
2019-05-10T22:21:58.755Z,8.78
2019-05-10T22:24:05.649Z,8.88
2019-05-10T22:26:12.177Z,8.97
2019-05-10T22:28:18.573Z,9.02
2019-05-10T22:30:25.189Z,9.08
2019-05-10T22:32:31.610Z,9.10
2019-05-10T22:34:37.995Z,9.14
2019-05-10T22:36:44.389Z,9.14
2019-05-10T22:39:05.657Z,9.10
2019-05-10T22:40:59.060Z,9.08
2019-05-10T22:43:05.688Z,9.08
2019-05-10T22:45:13.457Z,9.08
2019-05-10T22:47:19.921Z,9.04
2019-05-10T22:49:26.361Z,8.99
2019-05-10T22:51:32.760Z,8.94
2019-05-10T22:53:39.145Z,8.87
2019-05-10T22:55:45.627Z,8.80
2019-05-10T22:57:52.029Z,8.73
2019-05-10T22:59:58.428Z,8.68
2019-05-10T23:02:05.023Z,8.67
2019-05-10T23:04:11.480Z,8.62
2019-05-10T23:06:18.955Z,8.58
2019-05-10T23:08:26.531Z,8.54
2019-05-10T23:10:33.174Z,8.52
2019-05-10T23:12:39.741Z,8.52
2019-05-10T23:14:46.283Z,8.51
2019-05-10T23:16:52.788Z,8.49
2019-05-10T23:18:59.196Z,8.47
2019-05-10T23:21:05.741Z,8.45
2019-05-10T23:23:12.150Z,8.42
2019-05-10T23:25:18.585Z,8.40
2019-05-10T23:27:24.971Z,8.37
2019-05-10T23:29:31.360Z,8.34
2019-05-10T23:31:37.788Z,8.34
2019-05-10T23:33:44.259Z,8.34
2019-05-10T23:35:50.655Z,8.32
2019-05-10T23:37:57.043Z,8.30
2019-05-10T23:40:04.692Z,8.28
2019-05-10T23:42:11.262Z,8.20
2019-05-10T23:44:17.665Z,8.16
2019-05-10T23:46:24.170Z,8.12
2019-05-10T23:48:30.567Z,8.09
2019-05-10T23:50:36.937Z,8.05
2019-05-10T23:52:43.436Z,8.02
2019-05-10T23:54:49.889Z,7.98
2019-05-10T23:56:56.295Z,7.93
2019-05-10T23:59:02.734Z,7.88
